sensor_id;sensor_type;location;lat;lon;timestamp;pressure;altitude;pressure_sealevel;temperature;humidity
69737;BME280;64476;55.004;73.342;2022-12-18T00:01:13;102575.25;;;-13.32;48.81
69737;BME280;64476;55.004;73.342;2022-12-18T00:04:20;102579.47;;;-13.31;49.30
69737;BME280;64476;55.004;73.342;2022-12-18T00:07:22;102574.34;;;-13.33;49.39
69737;BME280;64476;55.004;73.342;2022-12-18T00:10:24;102580.31;;;-13.31;49.32
69737;BME280;64476;55.004;73.342;2022-12-18T00:13:25;102576.88;;;-13.33;48.47
69737;BME280;64476;55.004;73.342;2022-12-18T00:16:38;102581.78;;;-13.36;48.59
69737;BME280;64476;55.004;73.342;2022-12-18T00:23:25;102600.22;;;-13.35;48.26
69737;BME280;64476;55.004;73.342;2022-12-18T00:26:30;102608.50;;;-13.38;49.10
69737;BME280;64476;55.004;73.342;2022-12-18T00:29:34;102610.16;;;-13.38;48.44
69737;BME280;64476;55.004;73.342;2022-12-18T00:32:40;102615.19;;;-13.38;48.41
69737;BME280;64476;55.004;73.342;2022-12-18T00:35:51;102617.56;;;-13.42;49.14
69737;BME280;64476;55.004;73.342;2022-12-18T00:38:58;102611.72;;;-13.41;48.22
69737;BME280;64476;55.004;73.342;2022-12-18T00:42:09;102624.22;;;-13.42;48.64
69737;BME280;64476;55.004;73.342;2022-12-18T00:45:42;102635.94;;;-13.43;48.63
69737;BME280;64476;55.004;73.342;2022-12-18T00:48:45;102636.09;;;-13.40;48.17
69737;BME280;64476;55.004;73.342;2022-12-18T00:51:46;102635.09;;;-13.43;48.18
69737;BME280;64476;55.004;73.342;2022-12-18T00:54:48;102639.97;;;-13.46;48.33
69737;BME280;64476;55.004;73.342;2022-12-18T00:57:50;102646.56;;;-13.48;48.27
69737;BME280;64476;55.004;73.342;2022-12-18T01:00:52;102639.84;;;-13.49;48.40
69737;BME280;64476;55.004;73.342;2022-12-18T01:03:53;102641.41;;;-13.51;48.63
69737;BME280;64476;55.004;73.342;2022-12-18T01:06:54;102644.56;;;-13.55;48.85
69737;BME280;64476;55.004;73.342;2022-12-18T01:09:56;102637.84;;;-13.56;48.33
69737;BME280;64476;55.004;73.342;2022-12-18T01:12:57;102642.81;;;-13.58;48.34
69737;BME280;64476;55.004;73.342;2022-12-18T01:15:59;102646.19;;;-13.57;48.98
69737;BME280;64476;55.004;73.342;2022-12-18T01:19:10;102652.78;;;-13.59;49.27
69737;BME280;64476;55.004;73.342;2022-12-18T01:22:11;102654.56;;;-13.57;48.97
69737;BME280;64476;55.004;73.342;2022-12-18T01:25:13;102653.06;;;-13.53;48.50
69737;BME280;64476;55.004;73.342;2022-12-18T01:28:14;102650.59;;;-13.52;48.73
69737;BME280;64476;55.004;73.342;2022-12-18T01:31:21;102651.41;;;-13.53;49.05
69737;BME280;64476;55.004;73.342;2022-12-18T01:34:23;102655.63;;;-13.52;48.85
69737;BME280;64476;55.004;73.342;2022-12-18T01:37:24;102648.94;;;-13.51;49.19
69737;BME280;64476;55.004;73.342;2022-12-18T01:40:35;102649.81;;;-13.51;49.63
69737;BME280;64476;55.004;73.342;2022-12-18T01:43:50;102655.84;;;-13.47;48.85
69737;BME280;64476;55.004;73.342;2022-12-18T01:46:53;102657.47;;;-13.48;49.49
69737;BME280;64476;55.004;73.342;2022-12-18T01:49:54;102661.88;;;-13.44;49.55
69737;BME280;64476;55.004;73.342;2022-12-18T01:53:12;102673.50;;;-13.46;49.52
69737;BME280;64476;55.004;73.342;2022-12-18T01:56:15;102669.31;;;-13.45;49.07
69737;BME280;64476;55.004;73.342;2022-12-18T01:59:18;102677.00;;;-13.42;49.27
69737;BME280;64476;55.004;73.342;2022-12-18T02:02:22;102676.19;;;-13.41;48.68
69737;BME280;64476;55.004;73.342;2022-12-18T02:15:54;102692.03;;;-13.44;48.95
69737;BME280;64476;55.004;73.342;2022-12-18T02:29:46;102692.75;;;-13.27;49.77
69737;BME280;64476;55.004;73.342;2022-12-18T02:33:18;102697.09;;;-13.23;49.92
69737;BME280;64476;55.004;73.342;2022-12-18T02:36:24;102701.53;;;-13.17;49.57
69737;BME280;64476;55.004;73.342;2022-12-18T02:39:40;102704.91;;;-13.17;49.92
69737;BME280;64476;55.004;73.342;2022-12-18T03:00:08;102715.31;;;-13.28;49.38
69737;BME280;64476;55.004;73.342;2022-12-18T03:07:13;102748.72;;;-13.11;49.46
69737;BME280;64476;55.004;73.342;2022-12-18T03:10:23;102746.34;;;-13.08;49.66
69737;BME280;64476;55.004;73.342;2022-12-18T03:13:38;102739.72;;;-13.06;49.13
69737;BME280;64476;55.004;73.342;2022-12-18T03:16:42;102736.28;;;-13.08;50.01
69737;BME280;64476;55.004;73.342;2022-12-18T03:23:20;102742.97;;;-13.09;49.43
69737;BME280;64476;55.004;73.342;2022-12-18T03:26:24;102743.81;;;-13.08;49.40
69737;BME280;64476;55.004;73.342;2022-12-18T03:29:49;102761.63;;;-13.04;50.20
69737;BME280;64476;55.004;73.342;2022-12-18T03:33:04;102769.31;;;-13.01;49.28
69737;BME280;64476;55.004;73.342;2022-12-18T03:36:14;102761.03;;;-12.98;49.50
69737;BME280;64476;55.004;73.342;2022-12-18T03:39:16;102766.13;;;-12.97;49.79
69737;BME280;64476;55.004;73.342;2022-12-18T03:42:36;102762.03;;;-12.95;48.89
69737;BME280;64476;55.004;73.342;2022-12-18T03:45:53;102762.91;;;-12.94;49.46
69737;BME280;64476;55.004;73.342;2022-12-18T03:49:09;102766.22;;;-12.95;48.95
69737;BME280;64476;55.004;73.342;2022-12-18T03:52:33;102770.50;;;-12.93;49.92
69737;BME280;64476;55.004;73.342;2022-12-18T03:55:36;102767.25;;;-12.90;49.11
69737;BME280;64476;55.004;73.342;2022-12-18T03:58:49;102763.03;;;-12.91;49.67
69737;BME280;64476;55.004;73.342;2022-12-18T04:01:57;102706.31;;;-13.23;49.26
69737;BME280;64476;55.004;73.342;2022-12-18T04:05:01;102769.19;;;-12.84;49.46
69737;BME280;64476;55.004;73.342;2022-12-18T04:08:04;102773.56;;;-12.80;49.63
69737;BME280;64476;55.004;73.342;2022-12-18T04:11:21;102776.34;;;-12.74;49.40
69737;BME280;64476;55.004;73.342;2022-12-18T04:14:23;102784.28;;;-12.65;49.13
69737;BME280;64476;55.004;73.342;2022-12-18T04:17:30;102785.44;;;-12.58;49.17
69737;BME280;64476;55.004;73.342;2022-12-18T04:20:32;102782.91;;;-12.58;48.82
69737;BME280;64476;55.004;73.342;2022-12-18T04:23:39;102787.13;;;-12.57;49.24
69737;BME280;64476;55.004;73.342;2022-12-18T04:26:41;102788.06;;;-12.55;48.71
69737;BME280;64476;55.004;73.342;2022-12-18T04:29:56;102794.81;;;-12.54;49.58
69737;BME280;64476;55.004;73.342;2022-12-18T04:32:58;102802.56;;;-12.50;48.69
69737;BME280;64476;55.004;73.342;2022-12-18T04:35:59;102802.03;;;-12.43;49.42
69737;BME280;64476;55.004;73.342;2022-12-18T04:39:02;102808.88;;;-12.40;48.46
69737;BME280;64476;55.004;73.342;2022-12-18T04:42:08;102805.41;;;-12.42;49.20
69737;BME280;64476;55.004;73.342;2022-12-18T04:45:14;102812.06;;;-12.44;47.90
69737;BME280;64476;55.004;73.342;2022-12-18T04:48:26;102814.44;;;-12.47;49.02
69737;BME280;64476;55.004;73.342;2022-12-18T04:51:27;102816.81;;;-12.50;47.83
69737;BME280;64476;55.004;73.342;2022-12-18T04:54:29;102822.69;;;-12.50;49.02
69737;BME280;64476;55.004;73.342;2022-12-18T04:57:30;102825.41;;;-12.45;48.96
69737;BME280;64476;55.004;73.342;2022-12-18T05:00:32;102819.66;;;-12.43;48.66
69737;BME280;64476;55.004;73.342;2022-12-18T05:03:33;102825.72;;;-12.37;47.89
69737;BME280;64476;55.004;73.342;2022-12-18T05:06:34;102827.41;;;-12.38;47.73
69737;BME280;64476;55.004;73.342;2022-12-18T05:09:36;102829.00;;;-12.40;48.70
69737;BME280;64476;55.004;73.342;2022-12-18T05:12:37;102835.69;;;-12.40;48.53
69737;BME280;64476;55.004;73.342;2022-12-18T05:15:59;102828.19;;;-12.39;48.80
69737;BME280;64476;55.004;73.342;2022-12-18T05:19:00;102830.72;;;-12.39;47.82
69737;BME280;64476;55.004;73.342;2022-12-18T05:22:08;102824.88;;;-12.38;48.60
69737;BME280;64476;55.004;73.342;2022-12-18T05:25:10;102824.16;;;-12.35;49.25
69737;BME280;64476;55.004;73.342;2022-12-18T05:28:11;102828.00;;;-12.24;49.30
69737;BME280;64476;55.004;73.342;2022-12-18T05:31:18;102827.59;;;-12.14;49.23
69737;BME280;64476;55.004;73.342;2022-12-18T05:34:19;102824.84;;;-11.99;49.40
69737;BME280;64476;55.004;73.342;2022-12-18T05:37:20;102825.34;;;-11.87;48.84
69737;BME280;64476;55.004;73.342;2022-12-18T05:40:22;102826.56;;;-11.77;50.32
69737;BME280;64476;55.004;73.342;2022-12-18T05:50:48;102834.38;;;-11.28;49.37
69737;BME280;64476;55.004;73.342;2022-12-18T05:53:49;102841.34;;;-11.22;48.52
69737;BME280;64476;55.004;73.342;2022-12-18T05:57:08;102837.31;;;-11.17;48.20
69737;BME280;64476;55.004;73.342;2022-12-18T06:00:14;102844.31;;;-11.10;48.28
69737;BME280;64476;55.004;73.342;2022-12-18T06:03:20;102851.38;;;-11.01;49.36
69737;BME280;64476;55.004;73.342;2022-12-18T06:06:23;102855.91;;;-10.92;48.59
69737;BME280;64476;55.004;73.342;2022-12-18T06:09:24;102851.19;;;-10.83;49.44
69737;BME280;64476;55.004;73.342;2022-12-18T06:12:26;102846.50;;;-10.74;49.12
69737;BME280;64476;55.004;73.342;2022-12-18T06:15:28;102847.81;;;-10.61;48.21
69737;BME280;64476;55.004;73.342;2022-12-18T06:18:29;102849.13;;;-10.49;48.60
69737;BME280;64476;55.004;73.342;2022-12-18T06:21:31;102850.97;;;-10.43;49.70
69737;BME280;64476;55.004;73.342;2022-12-18T06:25:05;102849.81;;;-10.29;49.13
69737;BME280;64476;55.004;73.342;2022-12-18T06:28:08;102845.81;;;-10.22;49.38
69737;BME280;64476;55.004;73.342;2022-12-18T06:31:11;102841.00;;;-10.14;49.17
69737;BME280;64476;55.004;73.342;2022-12-18T06:34:17;102836.22;;;-10.07;49.43
69737;BME280;64476;55.004;73.342;2022-12-18T06:37:23;102833.09;;;-10.00;48.63
69737;BME280;64476;55.004;73.342;2022-12-18T06:40:27;102840.88;;;-9.93;48.21
69737;BME280;64476;55.004;73.342;2022-12-18T06:43:28;102832.03;;;-9.81;48.09
69737;BME280;64476;55.004;73.342;2022-12-18T06:46:37;102840.97;;;-9.65;49.07
69737;BME280;64476;55.004;73.342;2022-12-18T06:49:38;102840.53;;;-9.53;48.68
69737;BME280;64476;55.004;73.342;2022-12-18T06:52:40;102829.72;;;-9.48;47.91
69737;BME280;64476;55.004;73.342;2022-12-18T06:55:51;102824.81;;;-9.43;48.47
69737;BME280;64476;55.004;73.342;2022-12-18T06:58:53;102819.91;;;-9.38;48.08
69737;BME280;64476;55.004;73.342;2022-12-18T07:01:54;102823.38;;;-9.35;49.01
69737;BME280;64476;55.004;73.342;2022-12-18T07:04:56;102826.88;;;-9.31;48.78
69737;BME280;64476;55.004;73.342;2022-12-18T07:07:58;102832.81;;;-9.29;48.82
69737;BME280;64476;55.004;73.342;2022-12-18T07:11:10;102837.88;;;-9.29;49.84
69737;BME280;64476;55.004;73.342;2022-12-18T07:14:11;102839.69;;;-9.25;48.84
69737;BME280;64476;55.004;73.342;2022-12-18T07:17:12;102839.78;;;-9.22;49.18
69737;BME280;64476;55.004;73.342;2022-12-18T07:20:14;102843.31;;;-9.17;49.34
69737;BME280;64476;55.004;73.342;2022-12-18T07:23:15;102834.94;;;-9.16;49.57
69737;BME280;64476;55.004;73.342;2022-12-18T07:26:26;102841.78;;;-9.12;48.72
69737;BME280;64476;55.004;73.342;2022-12-18T07:29:34;102836.91;;;-9.06;48.93
69737;BME280;64476;55.004;73.342;2022-12-18T07:33:10;102832.84;;;-9.01;48.20
69737;BME280;64476;55.004;73.342;2022-12-18T07:36:12;102828.59;;;-9.02;48.70
69737;BME280;64476;55.004;73.342;2022-12-18T07:39:19;102829.38;;;-9.04;49.18
69737;BME280;64476;55.004;73.342;2022-12-18T07:42:57;102822.53;;;-9.07;48.87
69737;BME280;64476;55.004;73.342;2022-12-18T07:45:59;102822.59;;;-9.05;49.55
69737;BME280;64476;55.004;73.342;2022-12-18T07:49:09;102817.66;;;-9.01;49.59
69737;BME280;64476;55.004;73.342;2022-12-18T07:52:12;102812.69;;;-8.97;49.03
69737;BME280;64476;55.004;73.342;2022-12-18T07:55:22;102811.13;;;-8.94;49.13
69737;BME280;64476;55.004;73.342;2022-12-18T07:58:24;102807.03;;;-8.89;49.95
69737;BME280;64476;55.004;73.342;2022-12-18T08:01:25;102798.69;;;-8.85;49.31
69737;BME280;64476;55.004;73.342;2022-12-18T08:04:27;102796.28;;;-8.80;49.68
69737;BME280;64476;55.004;73.342;2022-12-18T08:07:39;102624.75;;;-9.81;49.51
69737;BME280;64476;55.004;73.342;2022-12-18T08:10:41;102794.75;;;-8.75;49.66
69737;BME280;64476;55.004;73.342;2022-12-18T08:13:53;102802.56;;;-8.67;49.68
69737;BME280;64476;55.004;73.342;2022-12-18T08:16:54;102799.31;;;-8.63;50.01
69737;BME280;64476;55.004;73.342;2022-12-18T08:19:55;102807.13;;;-8.56;49.52
69737;BME280;64476;55.004;73.342;2022-12-18T08:22:57;102804.66;;;-8.54;49.78
69737;BME280;64476;55.004;73.342;2022-12-18T08:26:13;102804.75;;;-8.49;50.13
69737;BME280;64476;55.004;73.342;2022-12-18T08:29:14;102809.97;;;-8.43;49.93
69737;BME280;64476;55.004;73.342;2022-12-18T08:32:16;102801.66;;;-8.39;49.73
69737;BME280;64476;55.004;73.342;2022-12-18T08:35:17;102799.84;;;-8.43;49.64
69737;BME280;64476;55.004;73.342;2022-12-18T08:38:19;102812.38;;;-8.48;50.13
69737;BME280;64476;55.004;73.342;2022-12-18T08:41:21;102810.59;;;-8.52;50.43
69737;BME280;64476;55.004;73.342;2022-12-18T08:44:27;102808.97;;;-8.50;50.62
69737;BME280;64476;55.004;73.342;2022-12-18T08:47:41;102813.38;;;-8.43;50.10
69737;BME280;64476;55.004;73.342;2022-12-18T08:50:59;102816.03;;;-8.38;49.75
69737;BME280;64476;55.004;73.342;2022-12-18T08:54:01;102819.41;;;-8.36;50.06
69737;BME280;64476;55.004;73.342;2022-12-18T08:57:11;102816.22;;;-8.29;50.15
69737;BME280;64476;55.004;73.342;2022-12-18T09:00:12;102823.91;;;-8.26;50.57
69737;BME280;64476;55.004;73.342;2022-12-18T09:03:14;102817.22;;;-8.24;50.37
69737;BME280;64476;55.004;73.342;2022-12-18T09:06:26;102813.13;;;-8.19;50.20
69737;BME280;64476;55.004;73.342;2022-12-18T09:09:36;102821.66;;;-8.15;50.08
69737;BME280;64476;55.004;73.342;2022-12-18T09:12:38;102819.25;;;-8.11;49.96
69737;BME280;64476;55.004;73.342;2022-12-18T09:15:45;102817.53;;;-8.12;50.41
69737;BME280;64476;55.004;73.342;2022-12-18T09:18:51;102792.28;;;-8.42;50.30
69737;BME280;64476;55.004;73.342;2022-12-18T09:22:08;102824.41;;;-8.08;50.67
69737;BME280;64476;55.004;73.342;2022-12-18T09:25:21;102830.53;;;-7.99;50.14
69737;BME280;64476;55.004;73.342;2022-12-18T09:28:30;102843.28;;;-7.96;50.49
69737;BME280;64476;55.004;73.342;2022-12-18T09:31:31;102849.22;;;-7.96;50.06
69737;BME280;64476;55.004;73.342;2022-12-18T09:34:33;102847.59;;;-7.92;50.29
69737;BME280;64476;55.004;73.342;2022-12-18T09:37:35;102843.44;;;-7.90;50.54
69737;BME280;64476;55.004;73.342;2022-12-18T09:40:48;102851.06;;;-7.90;50.39
69737;BME280;64476;55.004;73.342;2022-12-18T09:44:09;102868.75;;;-7.92;50.46
69737;BME280;64476;55.004;73.342;2022-12-18T09:47:19;102865.28;;;-7.95;50.61
69737;BME280;64476;55.004;73.342;2022-12-18T09:50:30;102853.44;;;-7.96;50.30
69737;BME280;64476;55.004;73.342;2022-12-18T09:53:37;102854.28;;;-7.96;50.60
69737;BME280;64476;55.004;73.342;2022-12-18T09:56:40;102852.66;;;-7.94;50.50
69737;BME280;64476;55.004;73.342;2022-12-18T09:59:43;102851.06;;;-7.90;50.88
69737;BME280;64476;55.004;73.342;2022-12-18T10:02:47;102847.78;;;-7.86;50.14
69737;BME280;64476;55.004;73.342;2022-12-18T10:16:09;102845.72;;;-7.99;50.46
69737;BME280;64476;55.004;73.342;2022-12-18T10:26:07;102857.41;;;-8.06;50.59
69737;BME280;64476;55.004;73.342;2022-12-18T10:29:12;102853.88;;;-8.11;50.57
69737;BME280;64476;55.004;73.342;2022-12-18T10:32:18;102850.47;;;-8.13;50.59
69737;BME280;64476;55.004;73.342;2022-12-18T10:35:20;102861.31;;;-8.17;50.54
69737;BME280;64476;55.004;73.342;2022-12-18T10:38:32;102867.13;;;-8.21;50.74
69737;BME280;64476;55.004;73.342;2022-12-18T10:41:34;102868.72;;;-8.25;50.57
69737;BME280;64476;55.004;73.342;2022-12-18T10:44:45;102879.38;;;-8.37;51.24
69737;BME280;64476;55.004;73.342;2022-12-18T10:47:49;102903.88;;;-8.39;51.19
69737;BME280;64476;55.004;73.342;2022-12-18T10:50:51;102892.03;;;-8.37;50.69
69737;BME280;64476;55.004;73.342;2022-12-18T10:54:05;102897.13;;;-8.37;50.72
69737;BME280;64476;55.004;73.342;2022-12-18T11:00:28;102891.22;;;-8.37;50.81
69737;BME280;64476;55.004;73.342;2022-12-18T11:03:36;102894.41;;;-8.44;51.41
69737;BME280;64476;55.004;73.342;2022-12-18T11:06:51;102896.84;;;-8.47;51.03
69737;BME280;64476;55.004;73.342;2022-12-18T11:10:00;102888.38;;;-8.48;51.01
69737;BME280;64476;55.004;73.342;2022-12-18T11:13:17;102895.16;;;-8.47;51.35
69737;BME280;64476;55.004;73.342;2022-12-18T11:16:34;102884.25;;;-8.46;50.74
69737;BME280;64476;55.004;73.342;2022-12-18T11:19:51;102874.19;;;-8.43;50.91
69737;BME280;64476;55.004;73.342;2022-12-18T11:23:10;102889.44;;;-8.41;51.08
69737;BME280;64476;55.004;73.342;2022-12-18T11:26:14;102875.13;;;-8.39;50.70
69737;BME280;64476;55.004;73.342;2022-12-18T11:29:17;102867.53;;;-8.39;50.68
69737;BME280;64476;55.004;73.342;2022-12-18T11:32:35;102881.53;;;-8.51;51.00
69737;BME280;64476;55.004;73.342;2022-12-18T11:36:13;102879.19;;;-8.74;51.74
69737;BME280;64476;55.004;73.342;2022-12-18T11:39:24;102887.31;;;-8.85;51.77
69737;BME280;64476;55.004;73.342;2022-12-18T11:45:35;102880.56;;;-8.84;51.49
69737;BME280;64476;55.004;73.342;2022-12-18T11:52:31;102879.72;;;-8.85;51.34
69737;BME280;64476;55.004;73.342;2022-12-18T11:55:51;102891.53;;;-8.85;51.47
69737;BME280;64476;55.004;73.342;2022-12-18T12:02:38;102876.63;;;-8.76;51.18
69737;BME280;64476;55.004;73.342;2022-12-18T12:09:10;102886.91;;;-8.70;50.96
69737;BME280;64476;55.004;73.342;2022-12-18T12:12:41;102874.25;;;-8.70;51.11
69737;BME280;64476;55.004;73.342;2022-12-18T12:22:18;102876.44;;;-8.82;51.97
69737;BME280;64476;55.004;73.342;2022-12-18T12:32:31;102870.09;;;-8.96;52.01
69737;BME280;64476;55.004;73.342;2022-12-18T12:38:54;102866.91;;;-8.91;52.05
69737;BME280;64476;55.004;73.342;2022-12-18T12:41:56;102861.03;;;-8.88;52.18
69737;BME280;64476;55.004;73.342;2022-12-18T12:45:26;102830.00;;;-9.11;52.39
69737;BME280;64476;55.004;73.342;2022-12-18T12:48:35;102863.81;;;-8.81;51.95
69737;BME280;64476;55.004;73.342;2022-12-18T12:51:39;102873.34;;;-8.72;51.86
69737;BME280;64476;55.004;73.342;2022-12-18T12:54:42;102868.53;;;-8.63;51.81
69737;BME280;64476;55.004;73.342;2022-12-18T12:58:10;102868.00;;;-8.53;51.67
69737;BME280;64476;55.004;73.342;2022-12-18T13:01:18;102860.31;;;-8.56;51.99
69737;BME280;64476;55.004;73.342;2022-12-18T13:04:44;102866.97;;;-8.59;51.36
69737;BME280;64476;55.004;73.342;2022-12-18T13:08:05;102865.97;;;-8.64;52.02
69737;BME280;64476;55.004;73.342;2022-12-18T13:11:11;102850.47;;;-8.75;52.02
69737;BME280;64476;55.004;73.342;2022-12-18T13:15:13;102846.72;;;-8.88;52.03
69737;BME280;64476;55.004;73.342;2022-12-18T13:18:49;102845.72;;;-8.93;52.14
69737;BME280;64476;55.004;73.342;2022-12-18T13:21:55;102830.31;;;-9.01;52.36
69737;BME280;64476;55.004;73.342;2022-12-18T13:25:00;102833.47;;;-9.08;52.27
69737;BME280;64476;55.004;73.342;2022-12-18T13:31:06;102823.31;;;-9.09;51.71
69737;BME280;64476;55.004;73.342;2022-12-18T13:34:17;102819.88;;;-9.11;51.58
69737;BME280;64476;55.004;73.342;2022-12-18T13:46:45;102818.72;;;-9.21;51.35
69737;BME280;64476;55.004;73.342;2022-12-18T13:49:53;102814.88;;;-9.37;52.36
69737;BME280;64476;55.004;73.342;2022-12-18T13:52:59;102819.13;;;-9.36;52.19
69737;BME280;64476;55.004;73.342;2022-12-18T13:56:01;102818.25;;;-9.36;51.62
69737;BME280;64476;55.004;73.342;2022-12-18T13:59:19;102820.69;;;-9.39;51.44
69737;BME280;64476;55.004;73.342;2022-12-18T14:02:22;102823.31;;;-9.36;51.40
69737;BME280;64476;55.004;73.342;2022-12-18T14:05:34;102826.06;;;-9.30;51.15
69737;BME280;64476;55.004;73.342;2022-12-18T14:08:38;102815.22;;;-9.26;51.76
69737;BME280;64476;55.004;73.342;2022-12-18T14:11:45;102813.53;;;-9.26;51.60
69737;BME280;64476;55.004;73.342;2022-12-18T14:14:51;102823.53;;;-9.30;51.21
69737;BME280;64476;55.004;73.342;2022-12-18T14:21:27;102809.09;;;-9.33;51.11
69737;BME280;64476;55.004;73.342;2022-12-18T14:24:30;102798.13;;;-9.33;51.22
69737;BME280;64476;55.004;73.342;2022-12-18T14:27:36;102800.53;;;-9.38;51.50
69737;BME280;64476;55.004;73.342;2022-12-18T14:30:39;102787.81;;;-9.39;51.85
69737;BME280;64476;55.004;73.342;2022-12-18T14:33:45;102780.84;;;-9.46;51.72
69737;BME280;64476;55.004;73.342;2022-12-18T14:36:53;102776.72;;;-9.44;51.89
69737;BME280;64476;55.004;73.342;2022-12-18T14:39:57;102769.16;;;-9.43;52.03
69737;BME280;64476;55.004;73.342;2022-12-18T14:42:59;102751.66;;;-9.35;51.64
69737;BME280;64476;55.004;73.342;2022-12-18T14:46:00;102759.59;;;-9.25;51.34
69737;BME280;64476;55.004;73.342;2022-12-18T14:49:25;102763.25;;;-9.15;51.86
69737;BME280;64476;55.004;73.342;2022-12-18T14:52:28;102753.75;;;-9.22;52.04
69737;BME280;64476;55.004;73.342;2022-12-18T14:55:43;102745.19;;;-9.27;51.66
69737;BME280;64476;55.004;73.342;2022-12-18T14:58:47;102750.09;;;-9.32;52.27
69737;BME280;64476;55.004;73.342;2022-12-18T15:05:19;102743.81;;;-9.44;52.29
69737;BME280;64476;55.004;73.342;2022-12-18T15:08:31;102737.94;;;-9.43;51.91
69737;BME280;64476;55.004;73.342;2022-12-18T15:14:46;102713.19;;;-9.25;51.75
69737;BME280;64476;55.004;73.342;2022-12-18T15:17:48;102720.91;;;-9.20;51.91
69737;BME280;64476;55.004;73.342;2022-12-18T15:20:53;102720.22;;;-9.15;52.46
69737;BME280;64476;55.004;73.342;2022-12-18T15:24:01;102724.56;;;-9.11;51.88
69737;BME280;64476;55.004;73.342;2022-12-18T15:27:19;102717.16;;;-9.05;52.05
69737;BME280;64476;55.004;73.342;2022-12-18T15:30:22;102724.03;;;-8.99;52.17
69737;BME280;64476;55.004;73.342;2022-12-18T15:33:26;102716.41;;;-9.01;51.67
69737;BME280;64476;55.004;73.342;2022-12-18T15:36:35;102717.38;;;-8.97;52.52
69737;BME280;64476;55.004;73.342;2022-12-18T15:39:47;102723.47;;;-8.90;52.45
69737;BME280;64476;55.004;73.342;2022-12-18T15:42:57;102730.47;;;-8.80;51.83
69737;BME280;64476;55.004;73.342;2022-12-18T15:46:22;102723.16;;;-8.69;52.08
69737;BME280;64476;55.004;73.342;2022-12-18T15:49:24;102728.41;;;-8.62;51.84
69737;BME280;64476;55.004;73.342;2022-12-18T15:52:25;102730.06;;;-8.64;51.87
69737;BME280;64476;55.004;73.342;2022-12-18T15:55:27;102724.16;;;-8.64;52.14
69737;BME280;64476;55.004;73.342;2022-12-18T15:58:56;102708.97;;;-8.64;51.84
69737;BME280;64476;55.004;73.342;2022-12-18T16:02:31;102715.00;;;-8.59;52.24
69737;BME280;64476;55.004;73.342;2022-12-18T16:05:33;102713.47;;;-8.53;51.97
69737;BME280;64476;55.004;73.342;2022-12-18T16:08:40;102708.44;;;-8.51;51.95
69737;BME280;64476;55.004;73.342;2022-12-18T16:11:41;102700.06;;;-8.48;52.19
69737;BME280;64476;55.004;73.342;2022-12-18T16:14:50;102689.84;;;-8.52;52.16
69737;BME280;64476;55.004;73.342;2022-12-18T16:17:52;102689.19;;;-8.44;52.52
69737;BME280;64476;55.004;73.342;2022-12-18T16:21:07;102685.19;;;-8.35;52.17
69737;BME280;64476;55.004;73.342;2022-12-18T16:24:13;102685.38;;;-8.27;52.60
69737;BME280;64476;55.004;73.342;2022-12-18T16:27:17;102670.25;;;-8.24;52.35
69737;BME280;64476;55.004;73.342;2022-12-18T16:30:20;102666.97;;;-8.20;52.59
69737;BME280;64476;55.004;73.342;2022-12-18T16:33:27;102659.53;;;-8.12;52.73
69737;BME280;64476;55.004;73.342;2022-12-18T16:36:33;102659.78;;;-8.02;52.46
69737;BME280;64476;55.004;73.342;2022-12-18T16:39:35;102665.03;;;-7.92;52.43
69737;BME280;64476;55.004;73.342;2022-12-18T16:42:37;102666.09;;;-7.84;52.59
69737;BME280;64476;55.004;73.342;2022-12-18T16:45:41;102656.06;;;-7.78;52.78
69737;BME280;64476;55.004;73.342;2022-12-18T16:48:42;102657.09;;;-7.70;52.71
69737;BME280;64476;55.004;73.342;2022-12-18T16:51:53;102654.63;;;-7.67;52.28
69737;BME280;64476;55.004;73.342;2022-12-18T16:54:55;102643.75;;;-7.61;52.34
69737;BME280;64476;55.004;73.342;2022-12-18T16:57:56;102633.50;;;-7.66;52.70
69737;BME280;64476;55.004;73.342;2022-12-18T17:00:59;102614.88;;;-7.66;53.06
69737;BME280;64476;55.004;73.342;2022-12-18T17:04:01;102610.78;;;-7.61;52.86
69737;BME280;64476;55.004;73.342;2022-12-18T17:07:08;102608.34;;;-7.55;53.18
69737;BME280;64476;55.004;73.342;2022-12-18T17:10:09;102604.88;;;-7.60;52.81
69737;BME280;64476;55.004;73.342;2022-12-18T17:13:10;102610.63;;;-7.69;53.52
69737;BME280;64476;55.004;73.342;2022-12-18T17:16:17;102598.72;;;-7.71;53.43
69737;BME280;64476;55.004;73.342;2022-12-18T17:19:19;102595.25;;;-7.76;53.36
69737;BME280;64476;55.004;73.342;2022-12-18T17:22:20;102596.13;;;-7.74;53.76
69737;BME280;64476;55.004;73.342;2022-12-18T17:25:28;102597.97;;;-7.67;53.26
69737;BME280;64476;55.004;73.342;2022-12-18T17:28:34;102583.66;;;-7.64;53.40
69737;BME280;64476;55.004;73.342;2022-12-18T17:31:36;102576.66;;;-7.75;53.10
69737;BME280;64476;55.004;73.342;2022-12-18T17:34:38;102579.97;;;-7.80;53.69
69737;BME280;64476;55.004;73.342;2022-12-18T17:37:39;102577.38;;;-7.83;53.27
69737;BME280;64476;55.004;73.342;2022-12-18T17:40:51;102567.66;;;-8.02;54.14
69737;BME280;64476;55.004;73.342;2022-12-18T17:43:56;102563.44;;;-8.02;53.96
69737;BME280;64476;55.004;73.342;2022-12-18T17:47:11;102567.00;;;-7.93;54.37
69737;BME280;64476;55.004;73.342;2022-12-18T17:50:18;102563.78;;;-7.85;53.94
69737;BME280;64476;55.004;73.342;2022-12-18T17:53:20;102568.00;;;-7.85;54.38
69737;BME280;64476;55.004;73.342;2022-12-18T17:56:21;102552.94;;;-7.79;53.96
69737;BME280;64476;55.004;73.342;2022-12-18T17:59:23;102564.84;;;-7.75;54.07
69737;BME280;64476;55.004;73.342;2022-12-18T18:02:59;102553.00;;;-7.74;54.68
69737;BME280;64476;55.004;73.342;2022-12-18T18:06:03;102553.09;;;-7.70;54.50
69737;BME280;64476;55.004;73.342;2022-12-18T18:09:09;102553.16;;;-7.68;53.84
69737;BME280;64476;55.004;73.342;2022-12-18T18:12:22;102546.31;;;-7.71;54.98